createdAt,value
2018-07-13T00:00:46.519Z,8.57
2018-07-13T00:06:41.544Z,11.59
2018-07-13T00:12:36.515Z,9.47
2018-07-13T00:18:31.517Z,10.72
2018-07-13T00:24:26.523Z,9.17
2018-07-13T00:30:21.595Z,10.61
2018-07-13T00:36:16.585Z,9.94
2018-07-13T00:42:11.560Z,9.87
2018-07-13T00:48:06.561Z,10.9
2018-07-13T00:54:01.555Z,9.46
2018-07-13T00:59:56.552Z,12.53
2018-07-13T01:05:51.587Z,10.5
2018-07-13T01:11:46.558Z,9.57
2018-07-13T01:17:41.645Z,12.52
2018-07-13T01:23:36.580Z,7.88
2018-07-13T01:29:31.642Z,13.3
2018-07-13T01:35:26.591Z,13.13
2018-07-13T01:41:21.568Z,10.86
2018-07-13T01:47:16.615Z,8.83
2018-07-13T01:53:11.588Z,11.78
2018-07-13T01:59:06.625Z,8.87
2018-07-13T02:05:01.743Z,10.87
2018-07-13T02:10:56.636Z,10.25
2018-07-13T02:16:51.664Z,12.59
2018-07-13T02:22:46.619Z,9.17
2018-07-13T02:28:41.665Z,13.1
2018-07-13T02:34:36.612Z,15.24
2018-07-13T02:40:31.629Z,10.38
2018-07-13T02:46:26.643Z,12.91
2018-07-13T02:52:21.624Z,10.79
2018-07-13T02:58:16.662Z,14.27
2018-07-13T03:04:11.659Z,12.53
2018-07-13T03:10:06.644Z,12.72
2018-07-13T03:16:01.636Z,16.45
2018-07-13T03:21:56.692Z,9.76
2018-07-13T03:27:51.691Z,10.13
2018-07-13T03:33:46.653Z,14.46
2018-07-13T03:39:41.671Z,9.64
2018-07-13T03:45:36.716Z,10.36
2018-07-13T03:51:31.697Z,10.08
2018-07-13T03:57:26.674Z,12.65
2018-07-13T04:03:21.688Z,10.42
2018-07-13T04:09:16.682Z,11.42
2018-07-13T04:15:11.724Z,12.81
2018-07-13T04:21:06.690Z,10.49
2018-07-13T04:27:01.748Z,10.52
2018-07-13T04:32:56.773Z,9.04
2018-07-13T04:38:51.698Z,10.45
2018-07-13T04:44:46.708Z,12.97
2018-07-13T04:50:41.722Z,13.85
2018-07-13T04:56:36.733Z,13.75
2018-07-13T05:02:31.742Z,9.86
2018-07-13T05:08:26.724Z,9.59
2018-07-13T05:14:21.759Z,10.29
2018-07-13T05:20:16.810Z,10.5
2018-07-13T05:26:11.746Z,14.76
2018-07-13T05:32:06.734Z,32.59
2018-07-13T05:38:01.758Z,26
2018-07-13T05:43:56.731Z,25.41
2018-07-13T05:49:51.751Z,19.38
2018-07-13T05:55:46.780Z,19.93
2018-07-13T06:01:41.829Z,14.46
2018-07-13T06:07:36.749Z,14.4
2018-07-13T06:13:31.784Z,15.67
2018-07-13T06:19:26.794Z,16.03
2018-07-13T06:25:21.800Z,13.14
2018-07-13T06:31:16.814Z,11.82
2018-07-13T06:37:11.864Z,14.92
2018-07-13T06:43:06.792Z,17.06
2018-07-13T06:49:01.872Z,17.5
2018-07-13T06:54:56.821Z,10.81
2018-07-13T07:00:51.815Z,11.25
2018-07-13T07:06:46.845Z,11.97
2018-07-13T07:12:41.795Z,9.53
2018-07-13T07:18:36.832Z,9.68
2018-07-13T07:24:31.904Z,9.15
2018-07-13T07:30:27.113Z,9.14
2018-07-13T07:36:21.869Z,10.03
2018-07-13T07:42:16.851Z,7.19
2018-07-13T07:48:11.950Z,6.23
2018-07-13T07:54:06.955Z,12.18
2018-07-13T08:00:01.848Z,11.46
2018-07-13T08:05:56.903Z,11.94
2018-07-13T08:11:51.863Z,14
2018-07-13T08:17:46.865Z,9.66
2018-07-13T08:23:41.892Z,8.71
2018-07-13T08:29:36.879Z,9.3
2018-07-13T08:35:31.913Z,9.26
2018-07-13T08:41:26.884Z,6.44
2018-07-13T08:47:21.902Z,8.38
2018-07-13T08:53:16.944Z,6.7
2018-07-13T08:59:11.885Z,8.29
2018-07-13T09:05:06.901Z,6.3
2018-07-13T09:11:01.901Z,8.25
2018-07-13T09:16:56.903Z,7.38
2018-07-13T09:22:51.907Z,19.38
2018-07-13T09:28:46.904Z,8
2018-07-13T09:34:41.940Z,7.7
2018-07-13T09:40:36.993Z,4.77
2018-07-13T09:46:31.959Z,4.98
2018-07-13T09:52:26.926Z,3.85
2018-07-13T09:58:21.969Z,2.51
2018-07-13T10:04:16.934Z,4.63
2018-07-13T10:10:11.953Z,7.54
2018-07-13T10:16:07.010Z,5.11
2018-07-13T10:22:01.967Z,4.96
2018-07-13T10:27:56.953Z,2.7
2018-07-13T10:33:51.958Z,3.3
2018-07-13T10:39:46.972Z,3.71
2018-07-13T10:45:42.030Z,2.74
2018-07-13T10:51:37.057Z,3.16
2018-07-13T10:57:31.999Z,5.01
2018-07-13T11:03:27.015Z,4.62
2018-07-13T11:09:21.981Z,2.85
2018-07-13T11:15:16.996Z,4.57
2018-07-13T11:21:12.017Z,5.14
2018-07-13T11:27:07.017Z,3.3
2018-07-13T11:33:02.018Z,2.38
2018-07-13T11:38:57.011Z,3.17
2018-07-13T11:44:52.021Z,3.47
2018-07-13T11:50:47.028Z,3.73
2018-07-13T11:56:42.015Z,5.26
2018-07-13T12:02:37.033Z,4.02
2018-07-13T12:08:32.025Z,2.17
2018-07-13T12:14:27.141Z,2.35
2018-07-13T12:20:22.143Z,3.48
2018-07-13T12:26:17.046Z,2.87
2018-07-13T12:32:12.057Z,3.17
2018-07-13T12:38:07.063Z,4.43
2018-07-13T12:44:02.089Z,2.08
2018-07-13T12:49:57.079Z,2.8
2018-07-13T12:55:52.071Z,2.77
2018-07-13T13:01:47.155Z,5.66
2018-07-13T13:07:42.082Z,5.64
2018-07-13T13:13:37.093Z,6.18
2018-07-13T13:19:32.104Z,3.02
2018-07-13T13:25:27.129Z,6.06
2018-07-13T13:31:22.117Z,5.68
2018-07-13T13:37:17.110Z,4.29
2018-07-13T13:43:12.115Z,2.83
2018-07-13T13:49:07.163Z,2.87
2018-07-13T13:55:02.150Z,3.32
2018-07-13T14:00:57.134Z,6.17
2018-07-13T14:06:52.183Z,4.46
2018-07-13T14:12:47.128Z,6.05
2018-07-13T14:18:42.173Z,4.17
2018-07-13T14:24:37.152Z,3.01
2018-07-13T14:30:32.204Z,3.38
2018-07-13T14:36:27.237Z,3.06
2018-07-13T14:42:22.168Z,4.06
2018-07-13T14:48:17.172Z,5.84
2018-07-13T14:54:12.199Z,3.5
2018-07-13T15:00:07.223Z,3.31
2018-07-13T15:06:02.326Z,3.86
2018-07-13T15:11:57.208Z,5.29
2018-07-13T15:17:52.317Z,5.39
2018-07-13T15:23:47.208Z,3.05
2018-07-13T15:29:42.254Z,4.55
2018-07-13T15:35:37.215Z,6.32
2018-07-13T15:41:32.235Z,10.67
2018-07-13T15:47:27.219Z,3.73
2018-07-13T15:53:22.220Z,13.42
2018-07-13T15:59:17.286Z,9.53
2018-07-13T16:05:12.356Z,11.96
2018-07-13T16:11:07.254Z,6.32
2018-07-13T16:17:02.241Z,3.87
2018-07-13T16:22:57.337Z,5.82
2018-07-13T16:28:52.243Z,4.43
2018-07-13T16:34:47.280Z,4.9
2018-07-13T16:40:42.301Z,7.75
2018-07-13T16:46:37.300Z,4.04
2018-07-13T16:52:32.272Z,4.17
2018-07-13T16:58:27.276Z,4.5
2018-07-13T17:04:22.329Z,5.61
2018-07-13T17:10:17.286Z,4.17
2018-07-13T17:16:12.309Z,4.23
2018-07-13T17:22:07.314Z,4.62
2018-07-13T17:28:02.304Z,6.67
2018-07-13T17:33:57.328Z,6.29
2018-07-13T17:39:52.320Z,3.6
2018-07-13T17:45:47.317Z,3.68
2018-07-13T17:51:42.294Z,5.09
2018-07-13T17:57:37.320Z,6.82
2018-07-13T18:03:32.334Z,4.46
2018-07-13T18:09:27.344Z,4.44
2018-07-13T18:15:22.327Z,5.55
2018-07-13T18:21:17.379Z,4.03
2018-07-13T18:27:12.321Z,8.99
2018-07-13T18:33:07.389Z,5.65
2018-07-13T18:39:02.374Z,7.47
2018-07-13T18:44:57.442Z,7.5
2018-07-13T18:50:52.342Z,4.07
2018-07-13T18:56:47.418Z,5.16
2018-07-13T19:02:42.374Z,3.58
2018-07-13T19:08:37.357Z,4.69
2018-07-13T19:14:32.374Z,5.8
2018-07-13T19:20:27.377Z,4.43
2018-07-13T19:26:22.382Z,6.88
2018-07-13T19:32:17.433Z,4
2018-07-13T19:38:12.424Z,4.75
2018-07-13T19:44:07.378Z,4.78
2018-07-13T19:50:02.410Z,6.21
2018-07-13T19:55:57.392Z,5.38
2018-07-13T20:01:52.397Z,6.43
2018-07-13T20:07:47.414Z,7.35
2018-07-13T20:13:42.408Z,5.2
2018-07-13T20:19:37.426Z,5.21
2018-07-13T20:25:32.405Z,7.04
2018-07-13T20:31:27.457Z,5.77
2018-07-13T20:37:22.451Z,4.9
2018-07-13T20:43:17.417Z,7.61
2018-07-13T20:49:12.495Z,7.32
2018-07-13T20:55:07.485Z,4.68
2018-07-13T21:01:02.458Z,8.46
2018-07-13T21:06:57.444Z,5.04
2018-07-13T21:12:52.440Z,6.69
2018-07-13T21:18:47.488Z,4.7
2018-07-13T21:24:42.455Z,6.18
2018-07-13T21:30:37.514Z,4.52
2018-07-13T21:36:32.470Z,5.71
2018-07-13T21:42:27.541Z,4.53
2018-07-13T21:48:22.469Z,5.26
2018-07-13T21:54:17.463Z,4.06
2018-07-13T22:00:12.494Z,7.22
2018-07-13T22:06:07.551Z,7.55
2018-07-13T22:12:02.529Z,4.55
2018-07-13T22:17:57.512Z,4.69
2018-07-13T22:23:52.615Z,5.56
2018-07-13T22:29:47.509Z,4
2018-07-13T22:35:42.523Z,5.24
2018-07-13T22:41:37.529Z,4.42
2018-07-13T22:47:32.529Z,4.42
2018-07-13T22:53:27.545Z,5.64
2018-07-13T22:59:22.532Z,5.96
2018-07-13T23:05:17.573Z,5.21
2018-07-13T23:11:12.576Z,5.58
2018-07-13T23:17:07.546Z,4.79
2018-07-13T23:23:02.594Z,4.44
2018-07-13T23:28:57.556Z,4.5
2018-07-13T23:34:52.653Z,6.36
2018-07-13T23:40:47.587Z,5.93
2018-07-13T23:46:42.571Z,5.23
2018-07-13T23:52:37.580Z,4.35
2018-07-13T23:58:32.574Z,6.06
